METAR Data
IDs: Format: Raw Decoded Include TAF

Data at: 0859 UTC 03 Aug 2021

KCVH 030855Z AUTO 00000KT 10SM CLR 13/11 A3005 RMK A01
KCVH 030835Z AUTO 00000KT 10SM CLR 13/12 A3005 RMK A01
KCVH 030815Z AUTO 20004KT 10SM CLR 14/12 A3006 RMK A01
KCVH 030755Z AUTO 00000KT 10SM CLR 14/12 A3006 RMK A01
KCVH 030735Z AUTO 00000KT 10SM CLR 14/12 A3006 RMK A01
KCVH 030715Z AUTO 00000KT 10SM CLR 14/12 A3006 RMK A01
KCVH 030655Z AUTO 00000KT 10SM CLR 14/12 A3006 RMK A01
KCVH 030635Z AUTO 00000KT 10SM CLR 15/12 A3007 RMK A01
KCVH 030615Z AUTO 00000KT 10SM CLR 15/12 A3007 RMK A01
KCVH 030555Z AUTO 24004KT 10SM CLR 15/12 A3006 RMK A01
KCVH 030535Z AUTO 24007KT 10SM CLR 15/12 A3007 RMK A01
KCVH 030515Z AUTO 22006KT 10SM CLR 16/12 A3006 RMK A01
KCVH 030455Z AUTO 00000KT 10SM CLR 16/12 A3006 RMK A01
KCVH 030435Z AUTO 23005KT 10SM CLR 16/12 A3006 RMK A01
KCVH 030415Z AUTO 24007KT 10SM CLR 16/12 A3005 RMK A01
KCVH 030355Z AUTO 00000KT 10SM CLR 17/12 A3005 RMK A01
KCVH 030335Z AUTO 26010KT 10SM CLR 17/12 A3004 RMK A01
KCVH 030315Z AUTO 26011KT 10SM CLR 18/12 A3003 RMK A01
KCVH 030255Z AUTO 25011KT 10SM CLR 20/12 A3003 RMK A01
KCVH 030235Z AUTO 25009KT 10SM CLR 20/12 A3002 RMK A01
KCVH 030215Z AUTO 25013G18KT 10SM CLR 21/12 A3002 RMK A01
KCVH 030155Z AUTO 25014KT 10SM CLR 22/12 A3002 RMK A01
KCVH 030135Z AUTO 25014KT 10SM CLR 23/12 A3001 RMK A01
KCVH 030115Z AUTO 24014KT 10SM CLR 24/12 A3002 RMK A01
KCVH 030055Z AUTO 24014G21KT 10SM CLR 25/12 A3001 RMK A01
KCVH 030035Z AUTO 24016G21KT 10SM CLR 25/12 A3001 RMK A01
KCVH 030015Z AUTO 24018KT 10SM CLR 26/11 A3001 RMK A01
KCVH 022355Z AUTO 24015G21KT 10SM CLR 26/11 A3002 RMK A01
KCVH 022335Z AUTO 24019KT 10SM CLR 26/12 A3002 RMK A01
KCVH 022315Z AUTO 24016G22KT 10SM CLR 27/12 A3002 RMK A01
KCVH 022255Z AUTO 24017KT 10SM CLR 27/11 A3003 RMK A01
KCVH 022235Z AUTO 23017KT 10SM CLR 27/12 A3004 RMK A01
KCVH 022215Z AUTO 24016G21KT 10SM CLR 27/11 A3004 RMK A01
KCVH 022155Z AUTO 25017KT 10SM CLR 27/11 A3005 RMK A01
KCVH 022135Z AUTO 25014KT 10SM CLR 28/11 A3005 RMK A01
KCVH 022115Z AUTO 25013KT 10SM CLR 28/11 A3005 RMK A01
KCVH 022055Z AUTO 24011KT 8SM FEW075 FEW090 27/11 A3006 RMK A01
KCVH 022035Z AUTO 24011KT 5SM HZ CLR 27/11 A3007 RMK A01
KCVH 022015Z AUTO 24011KT 10SM CLR 27/11 A3008 RMK A01
KCVH 021955Z AUTO 26007KT 220V280 10SM CLR 27/11 A3008 RMK A01
KCVH 021935Z AUTO 28005KT 10SM CLR 27/11 A3009 RMK A01
KCVH 021915Z AUTO 28007KT 240V320 10SM CLR 26/13 A3009 RMK A01
KCVH 021855Z AUTO 00000KT 10SM CLR 24/13 A3010 RMK A01
KCVH 021835Z AUTO 32004KT 10SM CLR 23/13 A3010 RMK A01
KCVH 021815Z AUTO 31004KT 10SM CLR 22/12 A3011 RMK A01
KCVH 021755Z AUTO 00000KT 10SM FEW100 21/12 A3011 RMK A01
KCVH 021735Z AUTO 00000KT 10SM CLR 20/13 A3012 RMK A01
KCVH 021715Z AUTO 00000KT 10SM CLR 20/13 A3012 RMK A01
KCVH 021655Z AUTO 00000KT 10SM CLR 18/13 A3012 RMK A01
KCVH 021635Z AUTO 00000KT 10SM CLR 16/13 A3013 RMK A01
KCVH 021615Z AUTO 00000KT 10SM FEW009 16/12 A3013 RMK A01
KCVH 021555Z AUTO 00000KT 10SM BKN008 15/12 A3013 RMK A01
KCVH 021535Z AUTO 00000KT 10SM OVC007 15/12 A3014 RMK A01
KCVH 021515Z AUTO 00000KT 10SM OVC007 14/12 A3014 RMK A01
KCVH 021455Z AUTO 00000KT 10SM OVC007 14/11 A3014 RMK A01
KCVH 021435Z AUTO 00000KT 10SM OVC007 14/10 A3013 RMK A01
KCVH 021415Z AUTO 00000KT 10SM OVC008 13/09 A3013 RMK A01
KCVH 021355Z AUTO 00000KT 10SM OVC009 11/09 A3013 RMK A01
KCVH 021335Z AUTO 00000KT 10SM SCT009 11/08 A3012 RMK A01
KCVH 021315Z AUTO 00000KT 10SM CLR 11/08 A3012 RMK A01
KCVH 021255Z AUTO 00000KT 10SM FEW011 11/09 A3011 RMK A01
KCVH 021235Z AUTO 00000KT 10SM SCT010 11/09 A3011 RMK A01
KCVH 021215Z AUTO 00000KT 10SM CLR 11/08 A3010 RMK A01
KCVH 021155Z AUTO 00000KT 10SM CLR 11/09 A3010 RMK A01
KCVH 021135Z AUTO 00000KT 10SM CLR 11/09 A3010 RMK A01
KCVH 021115Z AUTO 00000KT 10SM CLR 12/09 A3009 RMK A01
KCVH 021055Z AUTO 00000KT 10SM CLR 12/09 A3009 RMK A01
KCVH 021035Z AUTO 00000KT 10SM CLR 12/09 A3010 RMK A01
KCVH 021015Z AUTO 00000KT 10SM CLR 12/10 A3010 RMK A01
KCVH 020955Z AUTO 00000KT 10SM CLR 12/10 A3010 RMK A01
KCVH 020935Z AUTO 00000KT 10SM CLR 13/10 A3010 RMK A01
KCVH 020915Z AUTO 00000KT 10SM CLR 13/11 A3011 RMK A01
KCVH 020855Z AUTO 00000KT 10SM CLR 13/10 A3011 RMK A01
KCVH 020835Z AUTO 00000KT 10SM CLR 13/11 A3011 RMK A01
KCVH 020815Z AUTO 00000KT 10SM CLR 14/11 A3011 RMK A01
KCVH 020755Z AUTO 00000KT 10SM CLR 14/12 A3011 RMK A01
KCVH 020735Z AUTO 22005KT 10SM CLR 14/12 A3011 RMK A01
KCVH 020715Z AUTO 22005KT 10SM CLR 14/12 A3011 RMK A01
KCVH 020655Z AUTO 00000KT 10SM CLR 14/11 A3011 RMK A01
KCVH 020635Z AUTO 00000KT 10SM CLR 15/12 A3011 RMK A01
KCVH 020615Z AUTO 24006KT 10SM CLR 15/12 A3011 RMK A01
KCVH 020555Z AUTO 26009KT 10SM CLR 15/12 A3011 RMK A01
KCVH 020535Z AUTO 24007KT 10SM CLR 16/12 A3011 RMK A01
KCVH 020515Z AUTO 00000KT 10SM CLR 16/12 A3011 RMK A01
KCVH 020455Z AUTO 00000KT 10SM CLR 16/11 A3010 RMK A01
KCVH 020435Z AUTO 23006G11KT 10SM CLR 16/11 A3010 RMK A01
KCVH 020415Z AUTO 23010G16KT 10SM CLR 16/11 A3009 RMK A01
KCVH 020355Z AUTO 23012KT 10SM CLR 17/11 A3008 RMK A01
KCVH 020335Z AUTO 23012KT 10SM CLR 17/11 A3008 RMK A01
KCVH 020315Z AUTO 23012G17KT 10SM CLR 18/11 A3007 RMK A01
KCVH 020255Z AUTO 24014G20KT 10SM CLR 18/11 A3007 RMK A01
KCVH 020235Z AUTO 23015G21KT 10SM CLR 19/11 A3006 RMK A01
KCVH 020215Z AUTO 23017KT 10SM CLR 20/11 A3006 RMK A01
KCVH 020155Z AUTO 23018KT 10SM CLR 20/11 A3005 RMK A01
KCVH 020135Z AUTO 23018KT 10SM CLR 21/11 A3005 RMK A01
KCVH 020115Z AUTO 23015G21KT 10SM CLR 21/12 A3005 RMK A01
KCVH 020055Z AUTO 23016G23KT 10SM CLR 22/12 A3005 RMK A01
KCVH 020035Z AUTO 24018G23KT 10SM CLR 22/12 A3005 RMK A01
KCVH 020015Z AUTO 24016G21KT 10SM CLR 23/12 A3005 RMK A01
KCVH 012355Z AUTO 24017G22KT 10SM CLR 23/12 A3005 RMK A01
KCVH 012335Z AUTO 24020KT 10SM CLR 23/12 A3005 RMK A01
KCVH 012315Z AUTO 24019KT 10SM CLR 24/12 A3005 RMK A01
KCVH 012255Z AUTO 24019KT 10SM CLR 24/11 A3005 RMK A01
KCVH 012235Z AUTO 24017G23KT 10SM CLR 24/12 A3006 RMK A01
KCVH 012215Z AUTO 25018KT 10SM CLR 24/12 A3006 RMK A01
KCVH 012155Z AUTO 24016G22KT 10SM CLR 23/13 A3006 RMK A01
KCVH 012135Z AUTO 24017G22KT 10SM CLR 23/13 A3006 RMK A01
KCVH 012115Z AUTO 25020KT 10SM CLR 23/13 A3006 RMK A01